createdAt,value
2022-11-25T00:01:41.400Z,186.03
2022-11-25T00:04:10.310Z,178.00
2022-11-25T00:06:40.807Z,188.57
2022-11-25T00:09:13.405Z,176.23
2022-11-25T00:11:44.339Z,191.07
2022-11-25T00:14:14.870Z,175.67
2022-11-25T00:16:48.454Z,181.77
2022-11-25T00:19:18.128Z,180.93
2022-11-25T00:21:48.784Z,172.40
2022-11-25T00:24:17.645Z,189.17
2022-11-25T00:26:47.621Z,185.90
2022-11-25T00:29:16.572Z,181.87
2022-11-25T00:31:45.654Z,200.80
2022-11-25T00:34:15.574Z,177.70
2022-11-25T00:36:44.812Z,186.10
2022-11-25T00:39:16.361Z,180.03
2022-11-25T00:42:03.244Z,189.93
2022-11-25T00:44:40.686Z,199.00
2022-11-25T00:47:11.681Z,175.77
2022-11-25T00:49:42.344Z,195.60
2022-11-25T00:52:14.475Z,194.47
2022-11-25T00:54:44.945Z,187.30
2022-11-25T00:57:13.682Z,201.77
2022-11-25T00:59:42.673Z,197.37
2022-11-25T01:02:12.809Z,200.50
2022-11-25T01:04:41.656Z,186.77
2022-11-25T01:07:10.613Z,217.30
2022-11-25T01:09:39.357Z,213.87
2022-11-25T01:12:11.328Z,222.43
2022-11-25T01:14:40.706Z,213.23
2022-11-25T01:17:10.402Z,197.90
2022-11-25T01:19:40.523Z,201.67
2022-11-25T01:22:10.049Z,210.40
2022-11-25T01:24:39.187Z,220.03
2022-11-25T01:27:07.926Z,207.27
2022-11-25T01:29:37.986Z,199.63
2022-11-25T01:32:07.097Z,203.63
2022-11-25T01:34:37.678Z,215.40
2022-11-25T01:37:07.045Z,195.47
2022-11-25T01:39:35.937Z,210.33
2022-11-25T01:42:04.922Z,223.93
2022-11-25T01:44:36.888Z,228.60
2022-11-25T01:47:17.082Z,228.77
2022-11-25T01:49:49.244Z,228.73
2022-11-25T01:52:23.051Z,215.60
2022-11-25T01:54:55.799Z,201.37
2022-11-25T01:57:29.387Z,222.07
2022-11-25T02:00:01.467Z,235.03
2022-11-25T02:02:34.166Z,208.23
2022-11-25T02:05:05.079Z,242.90
2022-11-25T02:07:37.858Z,242.47
2022-11-25T02:10:11.040Z,205.17
2022-11-25T02:12:48.244Z,197.03
2022-11-25T02:15:17.962Z,206.67
2022-11-25T02:17:48.456Z,194.57
2022-11-25T02:20:19.357Z,201.67
2022-11-25T02:22:58.437Z,223.37
2022-11-25T02:25:31.856Z,224.33
2022-11-25T02:28:06.337Z,195.77
2022-11-25T02:30:36.586Z,252.80
2022-11-25T02:33:05.677Z,208.20
2022-11-25T02:35:36.085Z,270.37
2022-11-25T02:38:10.710Z,233.43
2022-11-25T02:40:49.169Z,272.17
2022-11-25T02:43:19.365Z,276.80
2022-11-25T02:45:58.401Z,395.40
2022-11-25T02:48:52.801Z,309.83
2022-11-25T02:51:21.659Z,277.80
2022-11-25T02:53:50.851Z,381.77
2022-11-25T02:56:24.353Z,310.90
2022-11-25T02:58:53.372Z,276.07
2022-11-25T03:01:22.426Z,360.73
2022-11-25T03:03:52.035Z,364.93
2022-11-25T03:06:20.936Z,314.87
2022-11-25T03:08:49.830Z,260.07
2022-11-25T03:11:43.669Z,250.47
2022-11-25T03:14:13.092Z,352.30
2022-11-25T03:16:41.950Z,307.03
2022-11-25T03:19:11.094Z,368.40
2022-11-25T03:21:40.214Z,155.77
2022-11-25T03:24:09.997Z,243.93
2022-11-25T03:26:40.152Z,252.20
2022-11-25T03:29:10.391Z,232.13
2022-11-25T03:31:40.817Z,180.80
2022-11-25T03:34:12.961Z,307.97
2022-11-25T03:36:43.265Z,261.37
2022-11-25T03:39:15.243Z,373.63
2022-11-25T03:41:46.078Z,260.93
2022-11-25T03:44:15.632Z,294.00
2022-11-25T03:46:44.781Z,180.57
2022-11-25T03:49:14.330Z,204.20
2022-11-25T03:51:44.103Z,184.70
2022-11-25T03:54:13.729Z,158.60
2022-11-25T03:57:04.565Z,207.67
2022-11-25T03:59:35.319Z,332.50
2022-11-25T04:02:04.788Z,298.17
2022-11-25T04:04:34.021Z,203.87
2022-11-25T04:07:03.009Z,138.77
2022-11-25T04:09:31.861Z,373.23
2022-11-25T04:12:21.631Z,444.40
2022-11-25T04:15:01.766Z,196.90
2022-11-25T04:17:30.893Z,178.93
2022-11-25T04:19:59.642Z,337.50
2022-11-25T04:22:29.642Z,275.93
2022-11-25T04:24:59.425Z,316.83
2022-11-25T04:27:30.196Z,402.33
2022-11-25T04:29:59.664Z,323.80
2022-11-25T04:32:29.416Z,255.93
2022-11-25T04:34:58.913Z,318.60
2022-11-25T04:37:28.083Z,334.03
2022-11-25T04:39:57.300Z,257.07
2022-11-25T04:42:36.978Z,273.97
2022-11-25T04:45:23.019Z,311.10
2022-11-25T04:47:54.258Z,272.63
2022-11-25T04:50:25.004Z,357.23
2022-11-25T04:53:05.037Z,229.00
2022-11-25T04:55:34.117Z,171.10
2022-11-25T04:58:06.970Z,232.27
2022-11-25T05:00:38.107Z,245.70
2022-11-25T05:03:08.611Z,200.03
2022-11-25T05:05:40.712Z,210.03
2022-11-25T05:08:10.136Z,262.73
2022-11-25T05:10:42.326Z,236.03
2022-11-25T05:13:11.529Z,169.07
2022-11-25T05:15:41.770Z,167.23
2022-11-25T05:18:10.969Z,214.10
2022-11-25T05:20:46.620Z,254.43
2022-11-25T05:23:18.966Z,162.90
2022-11-25T05:25:47.886Z,194.83
2022-11-25T05:28:33.743Z,213.63
2022-11-25T05:31:05.429Z,181.57
2022-11-25T05:33:37.154Z,211.73
2022-11-25T05:36:08.356Z,172.27
2022-11-25T05:38:44.205Z,328.67
2022-11-25T05:41:16.058Z,251.37
2022-11-25T05:43:47.327Z,187.70
2022-11-25T05:46:18.200Z,211.03
2022-11-25T05:48:55.214Z,207.43
2022-11-25T05:51:24.927Z,162.03
2022-11-25T05:53:55.831Z,209.03
2022-11-25T05:56:28.168Z,176.70
2022-11-25T05:59:10.680Z,211.63
2022-11-25T06:01:55.898Z,190.50
2022-11-25T06:04:24.749Z,181.93
2022-11-25T06:06:53.396Z,194.70
2022-11-25T06:09:21.958Z,184.30
2022-11-25T06:11:50.646Z,205.23
2022-11-25T06:14:21.137Z,182.13
2022-11-25T06:16:51.798Z,182.10
2022-11-25T06:19:28.635Z,167.27
2022-11-25T06:21:57.327Z,228.20
2022-11-25T06:24:27.292Z,380.20
2022-11-25T06:27:01.295Z,288.30
2022-11-25T06:29:30.178Z,125.27
2022-11-25T06:31:59.092Z,346.37
2022-11-25T06:34:48.214Z,483.60
2022-11-25T06:37:29.459Z,259.53
2022-11-25T06:39:58.085Z,172.60
2022-11-25T06:42:26.994Z,132.03
2022-11-25T06:44:55.511Z,132.20
2022-11-25T06:47:24.284Z,119.93
2022-11-25T06:49:54.665Z,143.97
2022-11-25T06:52:23.390Z,151.50
2022-11-25T06:54:53.761Z,83.83
2022-11-25T06:57:22.335Z,119.07
2022-11-25T06:59:51.321Z,117.53
2022-11-25T07:02:19.943Z,147.97
2022-11-25T07:04:48.658Z,113.50
2022-11-25T07:07:18.685Z,111.30
2022-11-25T07:09:47.475Z,113.33
2022-11-25T07:12:19.033Z,116.00
2022-11-25T07:14:51.137Z,104.37
2022-11-25T07:17:19.705Z,124.33
2022-11-25T07:19:48.339Z,103.50
2022-11-25T07:22:18.324Z,103.70
2022-11-25T07:24:46.955Z,123.43
2022-11-25T07:27:15.609Z,123.67
2022-11-25T07:30:03.515Z,144.27
2022-11-25T07:32:34.990Z,117.13
2022-11-25T07:35:03.961Z,112.87
2022-11-25T07:37:34.314Z,101.90
2022-11-25T07:40:03.565Z,108.87
2022-11-25T07:42:33.207Z,123.23
2022-11-25T07:45:01.826Z,122.07
2022-11-25T07:47:42.522Z,114.50
2022-11-25T07:50:11.648Z,117.50
2022-11-25T07:52:42.025Z,101.17
2022-11-25T07:55:10.919Z,94.00
2022-11-25T07:57:39.591Z,101.50
2022-11-25T08:00:10.009Z,102.63
2022-11-25T08:02:41.584Z,126.47
2022-11-25T08:05:11.084Z,146.80
2022-11-25T08:07:41.475Z,136.53
2022-11-25T08:10:11.622Z,140.47
2022-11-25T08:12:40.791Z,1325.57
2022-11-25T08:15:10.137Z,146.73
2022-11-25T08:17:38.709Z,130.43
2022-11-25T08:20:08.746Z,139.07
2022-11-25T08:22:37.560Z,107.67
2022-11-25T08:25:08.392Z,153.20
2022-11-25T08:27:37.078Z,147.87
2022-11-25T08:30:06.842Z,198.30
2022-11-25T08:32:38.556Z,156.33
2022-11-25T08:35:08.122Z,146.43
2022-11-25T08:37:37.259Z,142.63
2022-11-25T08:40:08.742Z,194.47
2022-11-25T08:42:37.837Z,128.33
2022-11-25T08:45:08.432Z,160.40
2022-11-25T08:47:37.100Z,174.33
2022-11-25T08:50:08.421Z,141.50
2022-11-25T08:52:37.419Z,162.37
2022-11-25T08:55:08.913Z,143.23
2022-11-25T08:57:37.844Z,163.50
2022-11-25T09:00:07.861Z,149.67
2022-11-25T09:02:36.467Z,174.40
2022-11-25T09:05:05.696Z,138.83
2022-11-25T09:07:34.452Z,145.90
2022-11-25T09:10:03.504Z,133.93
2022-11-25T09:12:33.630Z,131.50
2022-11-25T09:15:02.356Z,126.83
2022-11-25T09:17:31.048Z,121.50
2022-11-25T09:19:59.622Z,122.27
2022-11-25T09:22:28.209Z,106.30
2022-11-25T09:24:56.893Z,113.63
2022-11-25T09:27:25.585Z,103.77
2022-11-25T09:29:55.950Z,100.37
2022-11-25T09:32:24.702Z,93.43
2022-11-25T09:34:53.203Z,96.90
2022-11-25T09:37:21.802Z,80.83
2022-11-25T09:39:52.703Z,83.67
2022-11-25T09:42:47.686Z,87.87
2022-11-25T09:45:40.484Z,87.87
2022-11-25T09:48:28.847Z,80.90
2022-11-25T09:51:07.955Z,77.27
2022-11-25T09:53:44.150Z,67.60
2022-11-25T09:56:24.022Z,64.77
2022-11-25T09:58:56.779Z,71.20
2022-11-25T10:01:29.090Z,79.67
2022-11-25T10:04:02.493Z,69.20
2022-11-25T10:06:33.682Z,69.00
2022-11-25T10:09:05.553Z,67.17
2022-11-25T10:11:47.651Z,72.90
2022-11-25T10:14:25.612Z,81.97
2022-11-25T10:17:02.623Z,77.97
2022-11-25T10:19:40.797Z,70.77
2022-11-25T10:22:22.529Z,73.97
2022-11-25T10:24:54.800Z,64.23
2022-11-25T10:27:27.919Z,76.53
2022-11-25T10:30:06.701Z,70.30
2022-11-25T10:32:42.962Z,73.37
2022-11-25T10:35:22.299Z,117.43
2022-11-25T10:37:55.314Z,74.67
2022-11-25T10:40:24.023Z,70.00
2022-11-25T10:42:52.605Z,77.57
2022-11-25T10:45:30.171Z,68.50
2022-11-25T10:48:32.605Z,62.97
2022-11-25T10:51:12.534Z,62.47
2022-11-25T10:53:41.127Z,70.27
2022-11-25T10:56:13.651Z,70.20
2022-11-25T10:58:42.896Z,73.43
2022-11-25T11:01:25.754Z,72.27
2022-11-25T11:04:05.712Z,71.47
2022-11-25T11:06:37.507Z,68.50
2022-11-25T11:09:06.737Z,147.57
2022-11-25T11:11:49.163Z,74.83
2022-11-25T11:14:21.527Z,79.93
2022-11-25T11:16:54.973Z,74.20
2022-11-25T11:19:27.320Z,73.17
2022-11-25T11:21:56.854Z,67.13
2022-11-25T11:24:28.679Z,73.97
2022-11-25T11:27:06.490Z,77.27
2022-11-25T11:29:35.797Z,91.00
2022-11-25T11:32:06.503Z,150.00
2022-11-25T11:34:52.409Z,116.57
2022-11-25T11:37:39.977Z,88.20
2022-11-25T11:40:28.372Z,115.73
2022-11-25T11:43:13.516Z,100.60
2022-11-25T11:45:52.250Z,68.97
2022-11-25T11:48:28.509Z,72.40
2022-11-25T11:51:09.127Z,67.87
2022-11-25T11:53:48.089Z,76.33
2022-11-25T11:56:39.042Z,74.07
2022-11-25T11:59:35.763Z,72.80
2022-11-25T12:02:17.866Z,76.63
2022-11-25T12:04:52.646Z,86.80
2022-11-25T12:07:31.025Z,73.33
2022-11-25T12:10:06.152Z,88.47
2022-11-25T12:12:39.208Z,83.30
2022-11-25T12:15:18.862Z,72.80
2022-11-25T12:17:54.339Z,76.83
2022-11-25T12:20:34.020Z,92.13
2022-11-25T12:23:07.539Z,83.03
2022-11-25T12:25:39.238Z,81.47
2022-11-25T12:28:12.214Z,78.50
2022-11-25T12:30:49.742Z,81.33
2022-11-25T12:33:24.367Z,79.87
2022-11-25T12:36:02.425Z,79.60
2022-11-25T12:38:44.091Z,74.33
2022-11-25T12:41:21.357Z,83.07
2022-11-25T12:43:53.550Z,80.97
2022-11-25T12:46:28.034Z,76.80
2022-11-25T12:48:59.517Z,82.00
2022-11-25T12:52:02.654Z,76.47
2022-11-25T12:54:47.353Z,78.97
2022-11-25T12:57:49.052Z,72.03
2022-11-25T13:03:50.131Z,77.57
2022-11-25T13:06:38.855Z,78.67
2022-11-25T13:09:23.004Z,83.93
2022-11-25T13:12:22.454Z,82.67
2022-11-25T13:15:16.366Z,79.43
2022-11-25T13:17:48.125Z,75.80
2022-11-25T13:20:35.558Z,79.23
2022-11-25T13:23:10.400Z,78.03
2022-11-25T13:25:41.051Z,68.30
2022-11-25T13:28:30.615Z,71.77
2022-11-25T13:31:23.728Z,69.10
2022-11-25T13:34:26.839Z,71.23
2022-11-25T13:36:56.991Z,68.03
2022-11-25T13:39:33.787Z,67.60
2022-11-25T13:42:05.313Z,73.63
2022-11-25T13:44:36.811Z,72.20
2022-11-25T13:47:32.534Z,68.83
2022-11-25T13:50:06.586Z,71.53
2022-11-25T13:52:43.184Z,66.07
2022-11-25T13:55:26.403Z,62.03
2022-11-25T13:58:23.461Z,72.37
2022-11-25T14:01:23.624Z,66.60
2022-11-25T14:04:00.469Z,67.13
2022-11-25T14:06:58.113Z,66.40
2022-11-25T14:09:54.009Z,66.93
2022-11-25T14:12:48.505Z,70.47
2022-11-25T14:15:32.002Z,72.93
2022-11-25T14:19:00.423Z,70.43
2022-11-25T14:21:31.255Z,70.37
2022-11-25T14:24:17.477Z,72.80
2022-11-25T14:26:50.650Z,71.97
2022-11-25T14:29:23.159Z,73.40
2022-11-25T14:31:55.922Z,83.03
2022-11-25T14:34:31.671Z,90.07
2022-11-25T14:37:07.789Z,106.03
2022-11-25T14:39:43.159Z,107.43
2022-11-25T14:42:17.012Z,110.03
2022-11-25T14:44:50.198Z,117.37
2022-11-25T14:47:24.427Z,117.67
2022-11-25T14:50:18.721Z,120.40
2022-11-25T14:52:47.729Z,113.23
2022-11-25T14:55:27.110Z,111.73
2022-11-25T14:57:56.657Z,108.23
2022-11-25T15:00:25.868Z,110.20
2022-11-25T15:02:57.513Z,109.33
2022-11-25T15:05:32.271Z,111.07
2022-11-25T15:08:04.609Z,110.37
2022-11-25T15:10:37.572Z,102.57
2022-11-25T15:13:14.147Z,94.37
2022-11-25T15:15:47.138Z,103.10
2022-11-25T15:18:21.813Z,104.63
2022-11-25T15:20:58.685Z,100.70
2022-11-25T15:23:32.145Z,89.73
2022-11-25T15:26:01.544Z,93.00
2022-11-25T15:28:36.250Z,80.60
2022-11-25T15:31:10.849Z,78.43
2022-11-25T15:33:41.034Z,74.57
2022-11-25T15:36:11.684Z,77.43
2022-11-25T15:38:43.470Z,77.60
2022-11-25T15:41:20.629Z,74.20
2022-11-25T15:43:51.741Z,71.50
2022-11-25T15:46:20.836Z,75.33
2022-11-25T15:48:52.090Z,70.57
2022-11-25T15:51:42.996Z,73.70
2022-11-25T15:54:20.360Z,66.17
2022-11-25T15:56:51.969Z,72.57
2022-11-25T15:59:48.811Z,66.07
2022-11-25T16:02:39.325Z,66.00
2022-11-25T16:05:34.370Z,61.13
2022-11-25T16:08:35.357Z,70.67
2022-11-25T16:11:18.415Z,68.50
2022-11-25T16:13:47.997Z,66.10
2022-11-25T16:16:22.682Z,65.33
2022-11-25T16:19:05.035Z,70.80
2022-11-25T16:21:43.320Z,67.20
2022-11-25T16:24:41.257Z,69.97
2022-11-25T16:27:19.844Z,76.33
2022-11-25T16:29:54.296Z,77.40
2022-11-25T16:32:24.837Z,76.27
2022-11-25T16:34:56.104Z,78.50
2022-11-25T16:37:25.911Z,90.27
2022-11-25T16:39:55.922Z,78.73
2022-11-25T16:42:24.580Z,85.83
2022-11-25T16:44:54.024Z,71.93
2022-11-25T16:47:24.505Z,83.47
2022-11-25T16:49:53.125Z,77.53
2022-11-25T16:52:21.802Z,68.67
2022-11-25T16:54:50.529Z,79.97
2022-11-25T16:57:22.558Z,87.53
2022-11-25T16:59:57.237Z,98.10
2022-11-25T17:02:27.605Z,90.40
2022-11-25T17:04:58.209Z,81.77
2022-11-25T17:07:34.536Z,82.23
2022-11-25T17:10:03.339Z,81.83
2022-11-25T17:12:34.960Z,93.73
2022-11-25T17:15:06.232Z,93.87
2022-11-25T17:17:35.856Z,101.47
2022-11-25T17:20:05.244Z,105.00
2022-11-25T17:22:39.031Z,126.63
2022-11-25T17:25:09.555Z,113.73
2022-11-25T17:27:40.614Z,129.70
2022-11-25T17:30:18.268Z,137.97
2022-11-25T17:32:47.585Z,144.20
2022-11-25T17:35:20.652Z,135.47
2022-11-25T17:37:50.038Z,126.93
2022-11-25T17:40:18.964Z,156.93
2022-11-25T17:42:50.066Z,176.03
2022-11-25T17:45:21.629Z,183.03
2022-11-25T17:47:50.420Z,172.33
2022-11-25T17:50:21.583Z,166.50
2022-11-25T17:52:51.484Z,162.87
2022-11-25T17:55:22.117Z,143.33
2022-11-25T17:57:52.638Z,127.93
2022-11-25T18:00:22.837Z,116.10
2022-11-25T18:02:52.029Z,118.27
2022-11-25T18:05:22.601Z,109.70
2022-11-25T18:07:52.069Z,125.53
2022-11-25T18:10:23.578Z,124.43
2022-11-25T18:12:55.784Z,129.03
2022-11-25T18:15:26.610Z,137.33
2022-11-25T18:17:59.815Z,148.37
2022-11-25T18:20:30.098Z,164.57
2022-11-25T18:22:58.681Z,175.13
2022-11-25T18:25:30.802Z,191.00
2022-11-25T18:28:02.750Z,237.83
2022-11-25T18:30:34.463Z,271.07
2022-11-25T18:33:06.243Z,291.33
2022-11-25T18:35:36.786Z,333.77
2022-11-25T18:38:06.013Z,318.33
2022-11-25T18:40:36.070Z,371.03
2022-11-25T18:43:06.479Z,359.10
2022-11-25T18:45:37.715Z,452.23
2022-11-25T18:48:15.635Z,450.60
2022-11-25T18:50:45.002Z,488.00
2022-11-25T18:53:14.524Z,454.07
2022-11-25T18:55:44.087Z,451.47
2022-11-25T18:58:18.512Z,412.40
2022-11-25T19:00:49.861Z,449.87
2022-11-25T19:03:21.386Z,376.20
2022-11-25T19:05:50.922Z,340.07
2022-11-25T19:08:19.574Z,339.03
2022-11-25T19:10:49.653Z,336.80
2022-11-25T19:13:27.305Z,314.43
2022-11-25T19:16:06.543Z,287.50
2022-11-25T19:18:36.831Z,275.97
2022-11-25T19:21:05.860Z,288.97
2022-11-25T19:23:36.198Z,293.43
2022-11-25T19:26:11.485Z,277.43
2022-11-25T19:28:43.667Z,272.97
2022-11-25T19:31:12.863Z,285.50
2022-11-25T19:33:45.255Z,237.53
2022-11-25T19:36:21.799Z,294.67
2022-11-25T19:38:50.494Z,281.03
2022-11-25T19:41:19.486Z,263.73
2022-11-25T19:43:49.890Z,236.47
2022-11-25T19:46:30.067Z,263.03
2022-11-25T19:49:06.871Z,236.40
2022-11-25T19:51:36.107Z,231.37
2022-11-25T19:54:05.305Z,231.27
2022-11-25T19:56:33.934Z,217.90
2022-11-25T19:59:04.074Z,226.80
2022-11-25T20:01:34.061Z,231.00
2022-11-25T20:04:03.613Z,239.90
2022-11-25T20:06:33.285Z,223.67
2022-11-25T20:09:07.625Z,208.30
2022-11-25T20:11:36.945Z,195.93
2022-11-25T20:14:07.494Z,217.00
2022-11-25T20:16:37.767Z,204.80
2022-11-25T20:19:07.976Z,191.03
2022-11-25T20:21:40.247Z,185.83
2022-11-25T20:24:15.076Z,186.83
2022-11-25T20:26:48.436Z,191.53
2022-11-25T20:29:21.327Z,178.83
2022-11-25T20:31:51.227Z,172.40
2022-11-25T20:34:19.694Z,180.87
2022-11-25T20:36:48.399Z,171.77
2022-11-25T20:39:19.576Z,161.60
2022-11-25T20:41:50.894Z,171.33
2022-11-25T20:44:22.083Z,176.13
2022-11-25T20:47:02.235Z,166.73
2022-11-25T20:49:33.321Z,171.93
2022-11-25T20:52:02.340Z,184.47
2022-11-25T20:54:33.375Z,185.17
2022-11-25T20:57:02.998Z,198.27
2022-11-25T20:59:34.483Z,182.80
2022-11-25T21:02:03.264Z,173.27
2022-11-25T21:04:33.193Z,193.57
2022-11-25T21:07:02.351Z,196.70
2022-11-25T21:09:34.574Z,192.00
2022-11-25T21:12:19.084Z,204.37
2022-11-25T21:14:50.542Z,239.53
2022-11-25T21:17:20.221Z,269.10
2022-11-25T21:19:48.795Z,295.57
2022-11-25T21:22:17.600Z,288.67
2022-11-25T21:24:46.708Z,292.73
2022-11-25T21:27:17.437Z,291.23
2022-11-25T21:29:49.374Z,270.03
2022-11-25T21:32:30.196Z,252.37
2022-11-25T21:35:04.333Z,311.43
2022-11-25T21:37:37.611Z,288.37
2022-11-25T21:40:19.570Z,342.37
2022-11-25T21:42:53.232Z,367.33
2022-11-25T21:45:24.232Z,361.43
2022-11-25T21:47:54.493Z,382.07
2022-11-25T21:50:23.680Z,378.33
2022-11-25T21:52:52.410Z,390.97
2022-11-25T21:55:21.413Z,372.50
2022-11-25T21:57:50.547Z,412.57
2022-11-25T22:00:32.621Z,416.80
2022-11-25T22:03:01.891Z,449.47
2022-11-25T22:05:30.636Z,439.40
2022-11-25T22:08:01.148Z,416.33
2022-11-25T22:10:30.235Z,385.03
2022-11-25T22:12:59.261Z,491.20
2022-11-25T22:15:28.510Z,366.47
2022-11-25T22:18:02.756Z,526.07
2022-11-25T22:20:34.471Z,516.93
2022-11-25T22:23:03.921Z,565.90
2022-11-25T22:25:34.061Z,514.07
2022-11-25T22:28:02.778Z,544.17
2022-11-25T22:30:31.441Z,536.30
2022-11-25T22:33:03.785Z,528.80
2022-11-25T22:35:32.436Z,548.50
2022-11-25T22:38:01.719Z,638.10
2022-11-25T22:40:30.982Z,603.10
2022-11-25T22:43:00.855Z,637.23
2022-11-25T22:45:34.404Z,581.53
2022-11-25T22:48:07.804Z,638.07
2022-11-25T22:50:37.453Z,625.00
2022-11-25T22:53:13.549Z,624.70
2022-11-25T22:55:43.827Z,685.60
2022-11-25T22:58:18.068Z,621.10
2022-11-25T23:00:49.009Z,695.80
2022-11-25T23:03:34.494Z,664.90
2022-11-25T23:06:09.192Z,650.13
2022-11-25T23:08:38.247Z,673.17
2022-11-25T23:11:07.933Z,654.20
2022-11-25T23:13:43.276Z,661.10
2022-11-25T23:16:12.824Z,627.37
2022-11-25T23:18:46.385Z,638.10
2022-11-25T23:21:19.471Z,603.63
2022-11-25T23:23:48.296Z,611.53
2022-11-25T23:26:17.895Z,670.77
2022-11-25T23:28:47.401Z,682.67
2022-11-25T23:31:17.779Z,615.63
2022-11-25T23:33:50.864Z,654.27
2022-11-25T23:36:25.863Z,669.73
2022-11-25T23:38:57.207Z,538.00
2022-11-25T23:41:27.602Z,585.63
2022-11-25T23:43:56.879Z,762.77
2022-11-25T23:46:31.115Z,721.37
2022-11-25T23:49:04.104Z,698.43
2022-11-25T23:51:33.226Z,751.03
2022-11-25T23:54:02.228Z,801.83
2022-11-25T23:56:30.901Z,796.20
2022-11-25T23:58:59.746Z,853.57
